sensor_id;sensor_type;location;lat;lon;timestamp;P1;durP1;ratioP1;P2;durP2;ratioP2
14736;SDS011;7459;53.590;10.062;2023-07-29T00:02:10;8.70;;;3.58;;
14736;SDS011;7459;53.590;10.062;2023-07-29T00:04:35;7.80;;;3.97;;
14736;SDS011;7459;53.590;10.062;2023-07-29T00:07:01;9.38;;;3.95;;
14736;SDS011;7459;53.590;10.062;2023-07-29T00:09:27;7.77;;;3.83;;
14736;SDS011;7459;53.590;10.062;2023-07-29T00:11:52;8.60;;;3.97;;
14736;SDS011;7459;53.590;10.062;2023-07-29T00:14:18;9.00;;;3.87;;
14736;SDS011;7459;53.590;10.062;2023-07-29T00:16:44;10.25;;;4.43;;
14736;SDS011;7459;53.590;10.062;2023-07-29T00:19:09;9.03;;;4.10;;
14736;SDS011;7459;53.590;10.062;2023-07-29T00:21:35;9.57;;;4.55;;
14736;SDS011;7459;53.590;10.062;2023-07-29T00:24:01;8.77;;;4.10;;
14736;SDS011;7459;53.590;10.062;2023-07-29T00:26:27;8.95;;;4.07;;
14736;SDS011;7459;53.590;10.062;2023-07-29T00:28:54;8.25;;;4.18;;
14736;SDS011;7459;53.590;10.062;2023-07-29T00:31:21;10.02;;;4.03;;
14736;SDS011;7459;53.590;10.062;2023-07-29T00:33:47;7.97;;;3.90;;
14736;SDS011;7459;53.590;10.062;2023-07-29T00:36:12;9.25;;;4.65;;
14736;SDS011;7459;53.590;10.062;2023-07-29T00:38:38;9.50;;;4.77;;
14736;SDS011;7459;53.590;10.062;2023-07-29T00:41:04;8.93;;;4.93;;
14736;SDS011;7459;53.590;10.062;2023-07-29T00:43:30;11.15;;;4.22;;
14736;SDS011;7459;53.590;10.062;2023-07-29T00:45:56;8.73;;;4.03;;
14736;SDS011;7459;53.590;10.062;2023-07-29T00:48:25;8.82;;;4.35;;
14736;SDS011;7459;53.590;10.062;2023-07-29T00:50:51;8.30;;;4.50;;
14736;SDS011;7459;53.590;10.062;2023-07-29T00:53:17;8.00;;;4.33;;
14736;SDS011;7459;53.590;10.062;2023-07-29T00:55:43;9.68;;;4.40;;
14736;SDS011;7459;53.590;10.062;2023-07-29T00:58:09;9.47;;;3.70;;
14736;SDS011;7459;53.590;10.062;2023-07-29T01:00:35;9.07;;;4.38;;
14736;SDS011;7459;53.590;10.062;2023-07-29T01:03:01;7.68;;;4.15;;
14736;SDS011;7459;53.590;10.062;2023-07-29T01:05:29;8.68;;;4.50;;
14736;SDS011;7459;53.590;10.062;2023-07-29T01:08:10;9.17;;;4.63;;
14736;SDS011;7459;53.590;10.062;2023-07-29T01:10:52;8.52;;;4.30;;
14736;SDS011;7459;53.590;10.062;2023-07-29T01:13:51;10.30;;;4.05;;
14736;SDS011;7459;53.590;10.062;2023-07-29T01:16:32;9.63;;;4.43;;
14736;SDS011;7459;53.590;10.062;2023-07-29T01:19:05;7.68;;;3.30;;
14736;SDS011;7459;53.590;10.062;2023-07-29T01:21:35;7.93;;;4.03;;
14736;SDS011;7459;53.590;10.062;2023-07-29T01:24:01;9.13;;;4.20;;
14736;SDS011;7459;53.590;10.062;2023-07-29T01:26:27;10.10;;;4.38;;
14736;SDS011;7459;53.590;10.062;2023-07-29T01:28:54;8.85;;;4.13;;
14736;SDS011;7459;53.590;10.062;2023-07-29T01:31:23;8.70;;;4.00;;
14736;SDS011;7459;53.590;10.062;2023-07-29T01:34:04;7.80;;;4.00;;
14736;SDS011;7459;53.590;10.062;2023-07-29T01:36:37;7.65;;;3.67;;
14736;SDS011;7459;53.590;10.062;2023-07-29T01:39:07;7.55;;;3.63;;
14736;SDS011;7459;53.590;10.062;2023-07-29T01:41:33;8.70;;;3.58;;
14736;SDS011;7459;53.590;10.062;2023-07-29T01:44:00;9.77;;;3.93;;
14736;SDS011;7459;53.590;10.062;2023-07-29T01:46:27;7.90;;;4.43;;
14736;SDS011;7459;53.590;10.062;2023-07-29T01:48:53;7.32;;;3.72;;
14736;SDS011;7459;53.590;10.062;2023-07-29T01:51:18;10.00;;;3.90;;
14736;SDS011;7459;53.590;10.062;2023-07-29T01:53:45;8.88;;;4.18;;
14736;SDS011;7459;53.590;10.062;2023-07-29T01:56:11;7.97;;;4.30;;
14736;SDS011;7459;53.590;10.062;2023-07-29T01:58:36;7.57;;;4.00;;
14736;SDS011;7459;53.590;10.062;2023-07-29T02:01:02;9.40;;;4.03;;
14736;SDS011;7459;53.590;10.062;2023-07-29T02:03:28;8.10;;;4.03;;
14736;SDS011;7459;53.590;10.062;2023-07-29T02:05:53;8.77;;;5.00;;
14736;SDS011;7459;53.590;10.062;2023-07-29T02:08:19;8.07;;;4.20;;
14736;SDS011;7459;53.590;10.062;2023-07-29T02:10:45;8.23;;;4.53;;
14736;SDS011;7459;53.590;10.062;2023-07-29T02:13:11;10.40;;;4.83;;
14736;SDS011;7459;53.590;10.062;2023-07-29T02:15:37;9.90;;;4.40;;
14736;SDS011;7459;53.590;10.062;2023-07-29T02:18:02;9.47;;;5.20;;
14736;SDS011;7459;53.590;10.062;2023-07-29T02:20:28;9.35;;;5.00;;
14736;SDS011;7459;53.590;10.062;2023-07-29T02:22:54;8.73;;;4.63;;
14736;SDS011;7459;53.590;10.062;2023-07-29T02:25:20;9.17;;;4.17;;
14736;SDS011;7459;53.590;10.062;2023-07-29T02:27:46;9.13;;;4.43;;
14736;SDS011;7459;53.590;10.062;2023-07-29T02:30:11;9.63;;;5.13;;
14736;SDS011;7459;53.590;10.062;2023-07-29T02:32:37;12.25;;;5.50;;
14736;SDS011;7459;53.590;10.062;2023-07-29T02:35:03;10.30;;;5.60;;
14736;SDS011;7459;53.590;10.062;2023-07-29T02:37:29;9.05;;;5.82;;
14736;SDS011;7459;53.590;10.062;2023-07-29T02:39:55;9.25;;;4.90;;
14736;SDS011;7459;53.590;10.062;2023-07-29T02:42:21;8.40;;;5.07;;
14736;SDS011;7459;53.590;10.062;2023-07-29T02:44:47;11.07;;;5.53;;
14736;SDS011;7459;53.590;10.062;2023-07-29T02:47:12;10.03;;;5.90;;
14736;SDS011;7459;53.590;10.062;2023-07-29T02:49:38;9.68;;;5.75;;
14736;SDS011;7459;53.590;10.062;2023-07-29T02:52:04;8.50;;;5.20;;
14736;SDS011;7459;53.590;10.062;2023-07-29T02:54:30;9.30;;;5.60;;
14736;SDS011;7459;53.590;10.062;2023-07-29T02:56:55;9.63;;;4.93;;
14736;SDS011;7459;53.590;10.062;2023-07-29T02:59:21;8.93;;;4.90;;
14736;SDS011;7459;53.590;10.062;2023-07-29T03:01:47;8.37;;;4.70;;
14736;SDS011;7459;53.590;10.062;2023-07-29T03:04:12;9.50;;;4.77;;
14736;SDS011;7459;53.590;10.062;2023-07-29T03:06:38;8.87;;;5.43;;
14736;SDS011;7459;53.590;10.062;2023-07-29T03:09:04;8.73;;;4.90;;
14736;SDS011;7459;53.590;10.062;2023-07-29T03:11:30;8.50;;;4.85;;
14736;SDS011;7459;53.590;10.062;2023-07-29T03:13:58;8.95;;;5.30;;
14736;SDS011;7459;53.590;10.062;2023-07-29T03:16:25;7.90;;;5.07;;
14736;SDS011;7459;53.590;10.062;2023-07-29T03:18:51;9.27;;;5.57;;
14736;SDS011;7459;53.590;10.062;2023-07-29T03:21:17;7.77;;;4.63;;
14736;SDS011;7459;53.590;10.062;2023-07-29T03:23:42;9.60;;;5.07;;
14736;SDS011;7459;53.590;10.062;2023-07-29T03:26:08;9.67;;;6.07;;
14736;SDS011;7459;53.590;10.062;2023-07-29T03:28:39;10.07;;;6.22;;
14736;SDS011;7459;53.590;10.062;2023-07-29T03:31:07;8.75;;;5.50;;
14736;SDS011;7459;53.590;10.062;2023-07-29T03:33:33;11.35;;;5.80;;
14736;SDS011;7459;53.590;10.062;2023-07-29T03:35:58;10.10;;;5.90;;
14736;SDS011;7459;53.590;10.062;2023-07-29T03:38:24;9.82;;;6.10;;
14736;SDS011;7459;53.590;10.062;2023-07-29T03:40:50;9.93;;;5.37;;
14736;SDS011;7459;53.590;10.062;2023-07-29T03:43:16;10.67;;;6.13;;
14736;SDS011;7459;53.590;10.062;2023-07-29T03:45:42;11.45;;;6.47;;
14736;SDS011;7459;53.590;10.062;2023-07-29T03:48:07;10.37;;;6.03;;
14736;SDS011;7459;53.590;10.062;2023-07-29T03:50:34;10.68;;;5.78;;
14736;SDS011;7459;53.590;10.062;2023-07-29T03:53:01;12.57;;;6.32;;
14736;SDS011;7459;53.590;10.062;2023-07-29T03:55:30;9.48;;;6.05;;
14736;SDS011;7459;53.590;10.062;2023-07-29T03:57:57;12.00;;;5.50;;
14736;SDS011;7459;53.590;10.062;2023-07-29T04:00:24;11.10;;;5.95;;
14736;SDS011;7459;53.590;10.062;2023-07-29T04:02:50;12.95;;;6.20;;
14736;SDS011;7459;53.590;10.062;2023-07-29T04:05:16;11.68;;;6.82;;
14736;SDS011;7459;53.590;10.062;2023-07-29T04:07:42;13.10;;;7.03;;
14736;SDS011;7459;53.590;10.062;2023-07-29T04:10:08;11.80;;;6.72;;
14736;SDS011;7459;53.590;10.062;2023-07-29T04:12:34;11.45;;;6.82;;
14736;SDS011;7459;53.590;10.062;2023-07-29T04:14:59;13.63;;;7.80;;
14736;SDS011;7459;53.590;10.062;2023-07-29T04:17:25;13.50;;;7.47;;
14736;SDS011;7459;53.590;10.062;2023-07-29T04:19:51;14.53;;;8.10;;
14736;SDS011;7459;53.590;10.062;2023-07-29T04:22:16;14.07;;;8.60;;
14736;SDS011;7459;53.590;10.062;2023-07-29T04:24:42;14.27;;;7.83;;
14736;SDS011;7459;53.590;10.062;2023-07-29T04:27:08;15.07;;;8.50;;
14736;SDS011;7459;53.590;10.062;2023-07-29T04:29:34;13.33;;;8.43;;
14736;SDS011;7459;53.590;10.062;2023-07-29T04:32:04;16.58;;;9.80;;
14736;SDS011;7459;53.590;10.062;2023-07-29T04:34:30;17.08;;;10.10;;
14736;SDS011;7459;53.590;10.062;2023-07-29T04:36:57;20.02;;;11.27;;
14736;SDS011;7459;53.590;10.062;2023-07-29T04:39:22;17.05;;;10.35;;
14736;SDS011;7459;53.590;10.062;2023-07-29T04:41:48;22.43;;;12.53;;
14736;SDS011;7459;53.590;10.062;2023-07-29T04:44:14;21.13;;;12.70;;
14736;SDS011;7459;53.590;10.062;2023-07-29T04:46:40;20.37;;;11.60;;
14736;SDS011;7459;53.590;10.062;2023-07-29T04:49:05;19.73;;;12.13;;
14736;SDS011;7459;53.590;10.062;2023-07-29T04:51:31;23.47;;;13.67;;
14736;SDS011;7459;53.590;10.062;2023-07-29T04:53:57;22.23;;;13.13;;
14736;SDS011;7459;53.590;10.062;2023-07-29T04:56:23;26.50;;;14.57;;
14736;SDS011;7459;53.590;10.062;2023-07-29T04:58:50;24.50;;;13.83;;
14736;SDS011;7459;53.590;10.062;2023-07-29T05:01:15;25.65;;;14.60;;
14736;SDS011;7459;53.590;10.062;2023-07-29T05:03:41;24.57;;;14.40;;
14736;SDS011;7459;53.590;10.062;2023-07-29T05:06:07;25.25;;;14.65;;
14736;SDS011;7459;53.590;10.062;2023-07-29T05:08:32;24.87;;;14.00;;
14736;SDS011;7459;53.590;10.062;2023-07-29T05:10:58;28.50;;;14.57;;
14736;SDS011;7459;53.590;10.062;2023-07-29T05:13:24;25.27;;;13.87;;
14736;SDS011;7459;53.590;10.062;2023-07-29T05:15:49;22.77;;;14.05;;
14736;SDS011;7459;53.590;10.062;2023-07-29T05:18:16;23.77;;;13.77;;
14736;SDS011;7459;53.590;10.062;2023-07-29T05:20:42;22.90;;;13.13;;
14736;SDS011;7459;53.590;10.062;2023-07-29T05:23:08;23.80;;;13.90;;
14736;SDS011;7459;53.590;10.062;2023-07-29T05:25:34;23.13;;;12.77;;
14736;SDS011;7459;53.590;10.062;2023-07-29T05:28:03;26.83;;;13.80;;
14736;SDS011;7459;53.590;10.062;2023-07-29T05:30:29;24.40;;;12.87;;
14736;SDS011;7459;53.590;10.062;2023-07-29T05:33:02;26.33;;;14.80;;
14736;SDS011;7459;53.590;10.062;2023-07-29T05:35:29;27.15;;;13.82;;
14736;SDS011;7459;53.590;10.062;2023-07-29T05:37:55;23.55;;;12.63;;
14736;SDS011;7459;53.590;10.062;2023-07-29T05:40:21;23.33;;;13.13;;
14736;SDS011;7459;53.590;10.062;2023-07-29T05:42:46;23.42;;;13.05;;
14736;SDS011;7459;53.590;10.062;2023-07-29T05:45:13;21.87;;;12.70;;
14736;SDS011;7459;53.590;10.062;2023-07-29T05:47:38;25.40;;;14.05;;
14736;SDS011;7459;53.590;10.062;2023-07-29T05:50:04;23.33;;;13.50;;
14736;SDS011;7459;53.590;10.062;2023-07-29T05:52:31;25.00;;;13.10;;
14736;SDS011;7459;53.590;10.062;2023-07-29T05:54:57;24.48;;;13.48;;
14736;SDS011;7459;53.590;10.062;2023-07-29T05:57:22;23.90;;;13.00;;
14736;SDS011;7459;53.590;10.062;2023-07-29T05:59:48;22.93;;;12.53;;
14736;SDS011;7459;53.590;10.062;2023-07-29T06:02:14;24.48;;;12.63;;
14736;SDS011;7459;53.590;10.062;2023-07-29T06:04:40;22.83;;;12.70;;
14736;SDS011;7459;53.590;10.062;2023-07-29T06:07:06;23.52;;;14.00;;
14736;SDS011;7459;53.590;10.062;2023-07-29T06:09:31;22.02;;;13.27;;
14736;SDS011;7459;53.590;10.062;2023-07-29T06:11:57;20.80;;;13.00;;
14736;SDS011;7459;53.590;10.062;2023-07-29T06:14:23;24.60;;;13.30;;
14736;SDS011;7459;53.590;10.062;2023-07-29T06:16:49;23.90;;;14.23;;
14736;SDS011;7459;53.590;10.062;2023-07-29T06:19:14;21.52;;;12.98;;
14736;SDS011;7459;53.590;10.062;2023-07-29T06:21:40;25.47;;;14.00;;
14736;SDS011;7459;53.590;10.062;2023-07-29T06:24:06;25.25;;;13.73;;
14736;SDS011;7459;53.590;10.062;2023-07-29T06:26:31;25.33;;;13.60;;
14736;SDS011;7459;53.590;10.062;2023-07-29T06:28:57;23.30;;;13.27;;
14736;SDS011;7459;53.590;10.062;2023-07-29T06:31:23;23.10;;;14.13;;
14736;SDS011;7459;53.590;10.062;2023-07-29T06:33:48;25.67;;;15.25;;
14736;SDS011;7459;53.590;10.062;2023-07-29T06:36:14;26.93;;;15.40;;
14736;SDS011;7459;53.590;10.062;2023-07-29T06:38:40;24.38;;;14.63;;
14736;SDS011;7459;53.590;10.062;2023-07-29T06:41:06;24.92;;;15.55;;
14736;SDS011;7459;53.590;10.062;2023-07-29T06:43:32;24.13;;;15.53;;
14736;SDS011;7459;53.590;10.062;2023-07-29T06:45:58;26.92;;;15.65;;
14736;SDS011;7459;53.590;10.062;2023-07-29T06:48:23;26.43;;;15.57;;
14736;SDS011;7459;53.590;10.062;2023-07-29T06:50:49;26.70;;;16.20;;
14736;SDS011;7459;53.590;10.062;2023-07-29T06:53:15;26.52;;;15.75;;
14736;SDS011;7459;53.590;10.062;2023-07-29T06:55:41;30.20;;;16.27;;
14736;SDS011;7459;53.590;10.062;2023-07-29T06:58:08;28.02;;;15.55;;
14736;SDS011;7459;53.590;10.062;2023-07-29T07:00:34;26.17;;;16.48;;
14736;SDS011;7459;53.590;10.062;2023-07-29T07:03:00;27.38;;;15.90;;
14736;SDS011;7459;53.590;10.062;2023-07-29T07:05:26;25.60;;;15.47;;
14736;SDS011;7459;53.590;10.062;2023-07-29T07:07:51;26.95;;;17.20;;
14736;SDS011;7459;53.590;10.062;2023-07-29T07:10:17;26.30;;;15.33;;
14736;SDS011;7459;53.590;10.062;2023-07-29T07:12:43;24.00;;;15.00;;
14736;SDS011;7459;53.590;10.062;2023-07-29T07:15:09;26.97;;;14.70;;
14736;SDS011;7459;53.590;10.062;2023-07-29T07:17:34;24.80;;;14.37;;
14736;SDS011;7459;53.590;10.062;2023-07-29T07:20:00;24.60;;;14.27;;
14736;SDS011;7459;53.590;10.062;2023-07-29T07:22:26;25.33;;;13.73;;
14736;SDS011;7459;53.590;10.062;2023-07-29T07:24:52;23.27;;;14.15;;
14736;SDS011;7459;53.590;10.062;2023-07-29T07:27:17;22.80;;;13.33;;
14736;SDS011;7459;53.590;10.062;2023-07-29T07:29:43;24.42;;;13.73;;
14736;SDS011;7459;53.590;10.062;2023-07-29T07:32:09;23.47;;;13.83;;
14736;SDS011;7459;53.590;10.062;2023-07-29T07:34:34;26.00;;;13.85;;
14736;SDS011;7459;53.590;10.062;2023-07-29T07:37:00;21.80;;;13.30;;
14736;SDS011;7459;53.590;10.062;2023-07-29T07:39:26;26.67;;;13.45;;
14736;SDS011;7459;53.590;10.062;2023-07-29T07:41:51;25.53;;;13.73;;
14736;SDS011;7459;53.590;10.062;2023-07-29T07:44:17;23.60;;;13.40;;
14736;SDS011;7459;53.590;10.062;2023-07-29T07:46:44;22.73;;;12.68;;
14736;SDS011;7459;53.590;10.062;2023-07-29T07:49:10;21.45;;;12.57;;
14736;SDS011;7459;53.590;10.062;2023-07-29T07:51:37;23.53;;;13.40;;
14736;SDS011;7459;53.590;10.062;2023-07-29T07:54:03;21.67;;;13.07;;
14736;SDS011;7459;53.590;10.062;2023-07-29T07:56:29;24.33;;;13.15;;
14736;SDS011;7459;53.590;10.062;2023-07-29T07:58:55;21.67;;;12.50;;
14736;SDS011;7459;53.590;10.062;2023-07-29T08:01:20;24.05;;;13.80;;
14736;SDS011;7459;53.590;10.062;2023-07-29T08:03:46;22.50;;;12.77;;
14736;SDS011;7459;53.590;10.062;2023-07-29T08:06:12;21.95;;;12.88;;
14736;SDS011;7459;53.590;10.062;2023-07-29T08:08:37;23.53;;;13.67;;
14736;SDS011;7459;53.590;10.062;2023-07-29T08:11:03;23.08;;;13.38;;
14736;SDS011;7459;53.590;10.062;2023-07-29T08:13:29;25.47;;;14.07;;
14736;SDS011;7459;53.590;10.062;2023-07-29T08:15:54;20.95;;;12.63;;
14736;SDS011;7459;53.590;10.062;2023-07-29T08:18:20;23.00;;;12.97;;
14736;SDS011;7459;53.590;10.062;2023-07-29T08:20:53;21.65;;;12.10;;
14736;SDS011;7459;53.590;10.062;2023-07-29T08:23:20;20.88;;;12.35;;
14736;SDS011;7459;53.590;10.062;2023-07-29T08:25:51;21.25;;;11.43;;
14736;SDS011;7459;53.590;10.062;2023-07-29T08:28:21;16.73;;;10.07;;
14736;SDS011;7459;53.590;10.062;2023-07-29T08:30:48;18.37;;;10.63;;
14736;SDS011;7459;53.590;10.062;2023-07-29T08:33:14;19.08;;;10.52;;
14736;SDS011;7459;53.590;10.062;2023-07-29T08:35:40;18.58;;;10.98;;
14736;SDS011;7459;53.590;10.062;2023-07-29T08:38:05;18.40;;;10.87;;
14736;SDS011;7459;53.590;10.062;2023-07-29T08:40:31;19.55;;;10.88;;
14736;SDS011;7459;53.590;10.062;2023-07-29T08:43:02;18.93;;;11.17;;
14736;SDS011;7459;53.590;10.062;2023-07-29T08:45:31;17.83;;;10.00;;
14736;SDS011;7459;53.590;10.062;2023-07-29T08:48:04;18.50;;;11.20;;
14736;SDS011;7459;53.590;10.062;2023-07-29T08:50:33;18.85;;;9.95;;
14736;SDS011;7459;53.590;10.062;2023-07-29T08:53:03;15.93;;;9.52;;
14736;SDS011;7459;53.590;10.062;2023-07-29T08:55:30;15.47;;;9.40;;
14736;SDS011;7459;53.590;10.062;2023-07-29T08:57:56;17.17;;;10.20;;
14736;SDS011;7459;53.590;10.062;2023-07-29T09:00:25;17.70;;;10.40;;
14736;SDS011;7459;53.590;10.062;2023-07-29T09:02:51;16.50;;;10.23;;
14736;SDS011;7459;53.590;10.062;2023-07-29T09:05:17;18.33;;;11.20;;
14736;SDS011;7459;53.590;10.062;2023-07-29T09:07:43;17.83;;;11.40;;
14736;SDS011;7459;53.590;10.062;2023-07-29T09:10:09;18.30;;;11.38;;
14736;SDS011;7459;53.590;10.062;2023-07-29T09:12:36;20.02;;;11.45;;
14736;SDS011;7459;53.590;10.062;2023-07-29T09:15:01;18.95;;;11.73;;
14736;SDS011;7459;53.590;10.062;2023-07-29T09:17:31;18.87;;;11.20;;
14736;SDS011;7459;53.590;10.062;2023-07-29T09:19:58;16.38;;;10.07;;
14736;SDS011;7459;53.590;10.062;2023-07-29T09:22:24;19.45;;;10.75;;
14736;SDS011;7459;53.590;10.062;2023-07-29T09:24:52;18.37;;;10.23;;
14736;SDS011;7459;53.590;10.062;2023-07-29T09:27:27;16.17;;;9.90;;
14736;SDS011;7459;53.590;10.062;2023-07-29T09:29:56;16.42;;;9.80;;
14736;SDS011;7459;53.590;10.062;2023-07-29T09:32:23;16.33;;;9.98;;
14736;SDS011;7459;53.590;10.062;2023-07-29T09:34:50;15.65;;;9.00;;
14736;SDS011;7459;53.590;10.062;2023-07-29T09:37:17;17.43;;;9.77;;
14736;SDS011;7459;53.590;10.062;2023-07-29T09:39:46;17.55;;;10.18;;
14736;SDS011;7459;53.590;10.062;2023-07-29T09:42:21;17.45;;;10.30;;
14736;SDS011;7459;53.590;10.062;2023-07-29T09:44:48;15.75;;;8.82;;
14736;SDS011;7459;53.590;10.062;2023-07-29T09:47:21;18.95;;;9.85;;
14736;SDS011;7459;53.590;10.062;2023-07-29T09:49:49;15.87;;;9.30;;
14736;SDS011;7459;53.590;10.062;2023-07-29T09:52:16;19.40;;;10.38;;
14736;SDS011;7459;53.590;10.062;2023-07-29T09:54:43;18.55;;;10.38;;
14736;SDS011;7459;53.590;10.062;2023-07-29T09:57:16;18.20;;;10.55;;
14736;SDS011;7459;53.590;10.062;2023-07-29T09:59:52;14.73;;;8.52;;
14736;SDS011;7459;53.590;10.062;2023-07-29T10:02:22;13.97;;;7.20;;
14736;SDS011;7459;53.590;10.062;2023-07-29T10:04:49;14.82;;;7.55;;
14736;SDS011;7459;53.590;10.062;2023-07-29T10:07:17;11.30;;;6.53;;
14736;SDS011;7459;53.590;10.062;2023-07-29T10:09:45;11.98;;;6.70;;
14736;SDS011;7459;53.590;10.062;2023-07-29T10:12:11;12.93;;;5.80;;
14736;SDS011;7459;53.590;10.062;2023-07-29T10:14:38;10.77;;;5.03;;
14736;SDS011;7459;53.590;10.062;2023-07-29T10:17:06;9.38;;;5.18;;
14736;SDS011;7459;53.590;10.062;2023-07-29T10:19:34;8.90;;;4.82;;
14736;SDS011;7459;53.590;10.062;2023-07-29T10:22:00;10.73;;;5.57;;
14736;SDS011;7459;53.590;10.062;2023-07-29T10:24:32;10.03;;;4.83;;
14736;SDS011;7459;53.590;10.062;2023-07-29T10:26:59;9.05;;;4.40;;
14736;SDS011;7459;53.590;10.062;2023-07-29T10:29:33;10.40;;;4.90;;
14736;SDS011;7459;53.590;10.062;2023-07-29T10:32:04;9.10;;;4.40;;
14736;SDS011;7459;53.590;10.062;2023-07-29T10:34:31;9.02;;;4.43;;
14736;SDS011;7459;53.590;10.062;2023-07-29T10:36:59;7.97;;;4.17;;
14736;SDS011;7459;53.590;10.062;2023-07-29T10:39:25;7.57;;;3.55;;
14736;SDS011;7459;53.590;10.062;2023-07-29T10:42:01;6.90;;;4.10;;
14736;SDS011;7459;53.590;10.062;2023-07-29T10:47:12;6.25;;;3.70;;
14736;SDS011;7459;53.590;10.062;2023-07-29T10:49:42;6.90;;;4.00;;
14736;SDS011;7459;53.590;10.062;2023-07-29T10:52:14;7.72;;;4.22;;
14736;SDS011;7459;53.590;10.062;2023-07-29T10:54:45;7.57;;;3.65;;
14736;SDS011;7459;53.590;10.062;2023-07-29T10:57:13;9.38;;;3.75;;
14736;SDS011;7459;53.590;10.062;2023-07-29T10:59:40;6.78;;;3.75;;
14736;SDS011;7459;53.590;10.062;2023-07-29T11:02:17;7.70;;;4.03;;
14736;SDS011;7459;53.590;10.062;2023-07-29T11:04:46;7.43;;;4.47;;
14736;SDS011;7459;53.590;10.062;2023-07-29T11:17:40;7.32;;;4.15;;
14736;SDS011;7459;53.590;10.062;2023-07-29T11:20:07;8.50;;;3.55;;
14736;SDS011;7459;53.590;10.062;2023-07-29T11:22:35;6.22;;;3.70;;
14736;SDS011;7459;53.590;10.062;2023-07-29T11:25:01;6.63;;;3.03;;
14736;SDS011;7459;53.590;10.062;2023-07-29T11:27:28;5.82;;;3.40;;
14736;SDS011;7459;53.590;10.062;2023-07-29T11:30:00;5.68;;;2.60;;
14736;SDS011;7459;53.590;10.062;2023-07-29T11:32:30;6.88;;;3.03;;
14736;SDS011;7459;53.590;10.062;2023-07-29T11:34:57;6.17;;;2.90;;
14736;SDS011;7459;53.590;10.062;2023-07-29T11:37:26;4.85;;;2.35;;
14736;SDS011;7459;53.590;10.062;2023-07-29T11:39:52;4.47;;;1.98;;
14736;SDS011;7459;53.590;10.062;2023-07-29T11:42:18;5.80;;;2.00;;
14736;SDS011;7459;53.590;10.062;2023-07-29T11:44:44;5.15;;;2.30;;
14736;SDS011;7459;53.590;10.062;2023-07-29T11:47:11;6.85;;;2.58;;
14736;SDS011;7459;53.590;10.062;2023-07-29T11:49:38;6.27;;;2.30;;
14736;SDS011;7459;53.590;10.062;2023-07-29T11:52:08;5.57;;;2.40;;
14736;SDS011;7459;53.590;10.062;2023-07-29T11:54:35;6.32;;;1.92;;
14736;SDS011;7459;53.590;10.062;2023-07-29T11:57:03;5.80;;;2.10;;
14736;SDS011;7459;53.590;10.062;2023-07-29T11:59:34;4.72;;;2.03;;
14736;SDS011;7459;53.590;10.062;2023-07-29T12:02:01;6.07;;;2.20;;
14736;SDS011;7459;53.590;10.062;2023-07-29T12:04:30;6.55;;;2.03;;
14736;SDS011;7459;53.590;10.062;2023-07-29T12:06:57;6.15;;;2.22;;
14736;SDS011;7459;53.590;10.062;2023-07-29T12:09:23;6.03;;;1.90;;
14736;SDS011;7459;53.590;10.062;2023-07-29T12:11:51;6.18;;;2.50;;
14736;SDS011;7459;53.590;10.062;2023-07-29T12:14:17;6.00;;;1.70;;
14736;SDS011;7459;53.590;10.062;2023-07-29T12:16:43;5.20;;;1.88;;
14736;SDS011;7459;53.590;10.062;2023-07-29T12:19:12;5.40;;;1.52;;
14736;SDS011;7459;53.590;10.062;2023-07-29T12:21:42;4.43;;;1.90;;
14736;SDS011;7459;53.590;10.062;2023-07-29T12:24:08;6.10;;;1.70;;
14736;SDS011;7459;53.590;10.062;2023-07-29T12:26:37;4.53;;;1.77;;
14736;SDS011;7459;53.590;10.062;2023-07-29T12:29:16;6.03;;;1.90;;
14736;SDS011;7459;53.590;10.062;2023-07-29T12:31:44;3.60;;;1.30;;
14736;SDS011;7459;53.590;10.062;2023-07-29T12:34:17;4.85;;;1.48;;
14736;SDS011;7459;53.590;10.062;2023-07-29T12:36:47;4.13;;;1.40;;
14736;SDS011;7459;53.590;10.062;2023-07-29T12:41:53;4.18;;;1.45;;
14736;SDS011;7459;53.590;10.062;2023-07-29T12:44:20;3.97;;;1.20;;
14736;SDS011;7459;53.590;10.062;2023-07-29T12:46:48;3.75;;;1.35;;
14736;SDS011;7459;53.590;10.062;2023-07-29T12:49:14;4.00;;;1.52;;
14736;SDS011;7459;53.590;10.062;2023-07-29T12:51:40;5.10;;;1.83;;
14736;SDS011;7459;53.590;10.062;2023-07-29T12:54:06;5.47;;;1.25;;
14736;SDS011;7459;53.590;10.062;2023-07-29T12:56:32;3.65;;;1.23;;
14736;SDS011;7459;53.590;10.062;2023-07-29T12:58:58;3.63;;;1.35;;
14736;SDS011;7459;53.590;10.062;2023-07-29T13:01:25;3.47;;;1.30;;
14736;SDS011;7459;53.590;10.062;2023-07-29T13:03:52;2.90;;;0.90;;
14736;SDS011;7459;53.590;10.062;2023-07-29T13:06:19;4.22;;;1.10;;
14736;SDS011;7459;53.590;10.062;2023-07-29T13:08:44;2.92;;;0.90;;
14736;SDS011;7459;53.590;10.062;2023-07-29T13:11:12;3.73;;;1.13;;
14736;SDS011;7459;53.590;10.062;2023-07-29T13:13:39;4.18;;;1.00;;
14736;SDS011;7459;53.590;10.062;2023-07-29T13:16:05;2.92;;;1.10;;
14736;SDS011;7459;53.590;10.062;2023-07-29T13:18:31;4.00;;;0.93;;
14736;SDS011;7459;53.590;10.062;2023-07-29T13:20:57;2.83;;;0.90;;
14736;SDS011;7459;53.590;10.062;2023-07-29T13:23:25;2.97;;;1.30;;
14736;SDS011;7459;53.590;10.062;2023-07-29T13:25:50;3.00;;;1.10;;
14736;SDS011;7459;53.590;10.062;2023-07-29T13:28:16;2.80;;;0.90;;
14736;SDS011;7459;53.590;10.062;2023-07-29T13:30:42;2.67;;;1.02;;
14736;SDS011;7459;53.590;10.062;2023-07-29T13:33:08;5.57;;;1.27;;
14736;SDS011;7459;53.590;10.062;2023-07-29T13:35:34;3.60;;;1.20;;
14736;SDS011;7459;53.590;10.062;2023-07-29T13:38:00;2.50;;;0.90;;
14736;SDS011;7459;53.590;10.062;2023-07-29T13:40:26;3.37;;;1.10;;
14736;SDS011;7459;53.590;10.062;2023-07-29T13:42:52;3.05;;;1.23;;
14736;SDS011;7459;53.590;10.062;2023-07-29T13:45:18;3.03;;;1.20;;
14736;SDS011;7459;53.590;10.062;2023-07-29T13:47:44;7.27;;;1.50;;
14736;SDS011;7459;53.590;10.062;2023-07-29T13:50:10;2.88;;;1.13;;
14736;SDS011;7459;53.590;10.062;2023-07-29T13:52:37;3.17;;;1.15;;
14736;SDS011;7459;53.590;10.062;2023-07-29T13:55:03;3.92;;;1.63;;
14736;SDS011;7459;53.590;10.062;2023-07-29T13:57:30;3.47;;;1.13;;
14736;SDS011;7459;53.590;10.062;2023-07-29T13:59:56;4.00;;;0.98;;
14736;SDS011;7459;53.590;10.062;2023-07-29T14:02:22;4.15;;;1.20;;
14736;SDS011;7459;53.590;10.062;2023-07-29T14:04:48;3.40;;;1.10;;
14736;SDS011;7459;53.590;10.062;2023-07-29T14:07:13;3.10;;;1.00;;
14736;SDS011;7459;53.590;10.062;2023-07-29T14:09:39;4.27;;;1.03;;
14736;SDS011;7459;53.590;10.062;2023-07-29T14:12:05;3.25;;;1.30;;
14736;SDS011;7459;53.590;10.062;2023-07-29T14:14:31;4.88;;;1.33;;
14736;SDS011;7459;53.590;10.062;2023-07-29T14:16:57;3.63;;;1.10;;
14736;SDS011;7459;53.590;10.062;2023-07-29T14:19:23;4.22;;;1.20;;
14736;SDS011;7459;53.590;10.062;2023-07-29T14:21:49;2.75;;;0.90;;
14736;SDS011;7459;53.590;10.062;2023-07-29T14:24:15;5.20;;;1.30;;
14736;SDS011;7459;53.590;10.062;2023-07-29T14:26:41;3.90;;;1.45;;
14736;SDS011;7459;53.590;10.062;2023-07-29T14:29:07;3.63;;;1.23;;
14736;SDS011;7459;53.590;10.062;2023-07-29T14:31:33;6.27;;;1.30;;
14736;SDS011;7459;53.590;10.062;2023-07-29T14:33:58;3.88;;;1.10;;
14736;SDS011;7459;53.590;10.062;2023-07-29T14:36:24;2.90;;;1.10;;
14736;SDS011;7459;53.590;10.062;2023-07-29T14:38:50;4.03;;;1.20;;
14736;SDS011;7459;53.590;10.062;2023-07-29T14:41:16;3.63;;;1.30;;
14736;SDS011;7459;53.590;10.062;2023-07-29T14:43:42;8.07;;;0.90;;
14736;SDS011;7459;53.590;10.062;2023-07-29T14:46:08;3.20;;;1.00;;
14736;SDS011;7459;53.590;10.062;2023-07-29T14:48:33;3.38;;;1.20;;
14736;SDS011;7459;53.590;10.062;2023-07-29T14:50:59;3.57;;;1.20;;